Neuglobsow, Germany

1:51 PM CEST on May 04, 2015 (GMT +0200)
Neulögow | | Change Station
CLOSE
Current Station
Personal Weather Station
Location: Gransee, BRANDENBURG
Elevation: 180 ft
Nearby Weather Stations

Elev 180 ft 53.06 °N, 13.14 °E | Updated 2 seconds ago

Mostly Cloudy
Mostly Cloudy
68.7 °F
Feels Like 68.7 °F
N
2.0
Wind Variable Wind from WSW
Gusts 4.9 mph

Today
High -- | Low -- °F
--% Chance of Precip.
Yesterday
High -- | Low -- °F
Precip. -- in
5:29 AM 8:41 PM
Full, 100% visible
Pressure 29.77 in
Visibility 6.2 miles
Clouds Few 3900 ft
Mostly Cloudy 5900 ft
Dew Point 52 °F
Humidity 55%
Rainfall 0.18 in
Snow Depth Not available.
UV 4.0 out of 12
Pollen Not available.
Air Quality Not available.
Flu Activity Not available.
SPECI EDOP 041129Z 25015G25KT 9999 FEW039 BKN059 18/11 Q1008 RMK ATIS P

More Conditions Fewer Conditions

Pressure 29.77 in
Visibility 6.2 miles
Clouds Few 3900 ft
Mostly Cloudy 5900 ft
Dew Point 52 °F
Humidity 55%
Rainfall 0.18 in
Snow Depth Not available.
UV 4.0 out of 12
Pollen Not available.
Air Quality Not available.
Flu Activity Not available.
SPECI EDOP 041129Z 25015G25KT 9999 FEW039 BKN059 18/11 Q1008 RMK ATIS P

More Conditions Fewer Conditions

10-Day Weather Forecast

Almanac

Astronomy

May. 04, 2015 Rise Set
Actual Time
Civil Twilight
Nautical Twilight
Astronomical Twilight
Moon
Length of Visible Light
Length of Day
Tomorrow will be .
, % of the Moon is Illuminated

Today's Extremes

Country Highs Country Lows

Community

WunderPhotos

Upload Photos

1,818,578 photos uploaded!

WunderBlogs® & News

Nearby

Air Quality

  Air Quality AQ Index Pollutant
Not available.

Snow Depth

Station Depth Elevation

Earthquake Activity

City Distance Mag. Time & Date
Minimum magnitude displayed is 2.5.

Coastal Water Temperatures

Place Temperature

Stations

Nearby Weather Stations

Station Location Temp. Windchill Dew Point Humidity Wind Precip. Elev Updated Type